sensor_id;sensor_type;location;lat;lon;timestamp;P1;durP1;ratioP1;P2;durP2;ratioP2
70825;SDS011;58446;41.490;22.098;2023-04-24T00:02:06;12.73;;;9.23;;
70825;SDS011;58446;41.490;22.098;2023-04-24T00:04:34;16.45;;;9.40;;
70825;SDS011;58446;41.490;22.098;2023-04-24T00:07:00;13.00;;;9.35;;
70825;SDS011;58446;41.490;22.098;2023-04-24T00:09:26;13.73;;;8.63;;
70825;SDS011;58446;41.490;22.098;2023-04-24T00:11:51;12.52;;;8.55;;
70825;SDS011;58446;41.490;22.098;2023-04-24T00:14:18;12.13;;;8.95;;
70825;SDS011;58446;41.490;22.098;2023-04-24T00:16:44;13.50;;;8.73;;
70825;SDS011;58446;41.490;22.098;2023-04-24T00:19:09;13.67;;;8.97;;
70825;SDS011;58446;41.490;22.098;2023-04-24T00:21:36;11.48;;;8.55;;
70825;SDS011;58446;41.490;22.098;2023-04-24T00:24:02;14.65;;;9.48;;
70825;SDS011;58446;41.490;22.098;2023-04-24T00:26:28;14.43;;;8.55;;
70825;SDS011;58446;41.490;22.098;2023-04-24T00:28:54;12.53;;;8.37;;
70825;SDS011;58446;41.490;22.098;2023-04-24T00:31:19;12.93;;;8.52;;
70825;SDS011;58446;41.490;22.098;2023-04-24T00:33:45;12.63;;;8.37;;
70825;SDS011;58446;41.490;22.098;2023-04-24T00:36:11;12.93;;;8.80;;
70825;SDS011;58446;41.490;22.098;2023-04-24T00:38:37;13.53;;;8.37;;
70825;SDS011;58446;41.490;22.098;2023-04-24T00:41:02;14.43;;;8.93;;
70825;SDS011;58446;41.490;22.098;2023-04-24T00:43:28;12.50;;;8.13;;
70825;SDS011;58446;41.490;22.098;2023-04-24T00:45:54;12.63;;;9.05;;
70825;SDS011;58446;41.490;22.098;2023-04-24T00:48:20;13.70;;;8.70;;
70825;SDS011;58446;41.490;22.098;2023-04-24T00:50:46;12.52;;;8.75;;
70825;SDS011;58446;41.490;22.098;2023-04-24T00:53:12;12.63;;;9.05;;
70825;SDS011;58446;41.490;22.098;2023-04-24T00:55:37;13.17;;;9.40;;
70825;SDS011;58446;41.490;22.098;2023-04-24T00:58:04;15.48;;;8.98;;
70825;SDS011;58446;41.490;22.098;2023-04-24T01:00:29;14.30;;;8.57;;
70825;SDS011;58446;41.490;22.098;2023-04-24T01:02:56;15.05;;;9.32;;
70825;SDS011;58446;41.490;22.098;2023-04-24T01:05:24;13.37;;;9.30;;
70825;SDS011;58446;41.490;22.098;2023-04-24T01:07:51;14.45;;;8.88;;
70825;SDS011;58446;41.490;22.098;2023-04-24T01:10:16;13.40;;;8.98;;
70825;SDS011;58446;41.490;22.098;2023-04-24T01:12:42;13.32;;;8.90;;
70825;SDS011;58446;41.490;22.098;2023-04-24T01:15:09;14.77;;;9.63;;
70825;SDS011;58446;41.490;22.098;2023-04-24T01:17:35;12.20;;;8.63;;
70825;SDS011;58446;41.490;22.098;2023-04-24T01:20:01;13.55;;;9.05;;
70825;SDS011;58446;41.490;22.098;2023-04-24T01:22:29;14.95;;;9.90;;
70825;SDS011;58446;41.490;22.098;2023-04-24T01:24:55;12.07;;;8.60;;
70825;SDS011;58446;41.490;22.098;2023-04-24T01:27:21;13.55;;;8.90;;
70825;SDS011;58446;41.490;22.098;2023-04-24T01:29:47;15.68;;;8.73;;
70825;SDS011;58446;41.490;22.098;2023-04-24T01:32:14;14.13;;;9.53;;
70825;SDS011;58446;41.490;22.098;2023-04-24T01:34:40;14.77;;;8.98;;
70825;SDS011;58446;41.490;22.098;2023-04-24T01:37:06;12.43;;;8.85;;
70825;SDS011;58446;41.490;22.098;2023-04-24T01:39:32;14.13;;;8.83;;
70825;SDS011;58446;41.490;22.098;2023-04-24T01:41:58;12.93;;;8.65;;
70825;SDS011;58446;41.490;22.098;2023-04-24T01:44:26;12.98;;;9.35;;
70825;SDS011;58446;41.490;22.098;2023-04-24T01:46:51;13.45;;;8.93;;
70825;SDS011;58446;41.490;22.098;2023-04-24T01:49:19;13.52;;;8.48;;
70825;SDS011;58446;41.490;22.098;2023-04-24T01:51:45;14.57;;;9.70;;
70825;SDS011;58446;41.490;22.098;2023-04-24T01:54:11;13.20;;;9.38;;
70825;SDS011;58446;41.490;22.098;2023-04-24T01:56:36;15.60;;;10.18;;
70825;SDS011;58446;41.490;22.098;2023-04-24T01:59:06;15.13;;;9.60;;
70825;SDS011;58446;41.490;22.098;2023-04-24T02:01:34;12.40;;;9.60;;
70825;SDS011;58446;41.490;22.098;2023-04-24T02:04:04;13.70;;;8.32;;
70825;SDS011;58446;41.490;22.098;2023-04-24T02:06:31;14.10;;;10.00;;
70825;SDS011;58446;41.490;22.098;2023-04-24T02:08:57;13.40;;;8.68;;
70825;SDS011;58446;41.490;22.098;2023-04-24T02:11:26;14.20;;;8.80;;
70825;SDS011;58446;41.490;22.098;2023-04-24T02:13:52;15.25;;;9.07;;
70825;SDS011;58446;41.490;22.098;2023-04-24T02:16:18;14.55;;;10.07;;
70825;SDS011;58446;41.490;22.098;2023-04-24T02:18:43;15.00;;;9.53;;
70825;SDS011;58446;41.490;22.098;2023-04-24T02:21:09;15.02;;;10.32;;
70825;SDS011;58446;41.490;22.098;2023-04-24T02:23:35;14.32;;;9.73;;
70825;SDS011;58446;41.490;22.098;2023-04-24T02:26:01;12.87;;;9.63;;
70825;SDS011;58446;41.490;22.098;2023-04-24T02:28:27;14.90;;;9.80;;
70825;SDS011;58446;41.490;22.098;2023-04-24T02:30:53;15.50;;;9.80;;
70825;SDS011;58446;41.490;22.098;2023-04-24T02:33:18;16.40;;;9.20;;
70825;SDS011;58446;41.490;22.098;2023-04-24T02:35:44;13.27;;;10.07;;
70825;SDS011;58446;41.490;22.098;2023-04-24T02:38:10;14.50;;;10.10;;
70825;SDS011;58446;41.490;22.098;2023-04-24T02:40:36;14.63;;;9.70;;
70825;SDS011;58446;41.490;22.098;2023-04-24T02:43:02;16.40;;;9.90;;
70825;SDS011;58446;41.490;22.098;2023-04-24T02:45:27;14.55;;;9.93;;
70825;SDS011;58446;41.490;22.098;2023-04-24T02:47:53;14.70;;;9.80;;
70825;SDS011;58446;41.490;22.098;2023-04-24T02:50:18;15.90;;;10.07;;
70825;SDS011;58446;41.490;22.098;2023-04-24T02:52:44;13.73;;;9.20;;
70825;SDS011;58446;41.490;22.098;2023-04-24T02:55:10;15.18;;;10.52;;
70825;SDS011;58446;41.490;22.098;2023-04-24T02:57:39;13.43;;;9.13;;
70825;SDS011;58446;41.490;22.098;2023-04-24T03:00:05;16.65;;;9.70;;
70825;SDS011;58446;41.490;22.098;2023-04-24T03:02:32;16.13;;;10.27;;
70825;SDS011;58446;41.490;22.098;2023-04-24T03:04:58;13.43;;;9.73;;
70825;SDS011;58446;41.490;22.098;2023-04-24T03:07:24;13.18;;;9.77;;
70825;SDS011;58446;41.490;22.098;2023-04-24T03:09:50;13.37;;;9.73;;
70825;SDS011;58446;41.490;22.098;2023-04-24T03:12:16;15.02;;;10.13;;
70825;SDS011;58446;41.490;22.098;2023-04-24T03:14:43;14.57;;;10.20;;
70825;SDS011;58446;41.490;22.098;2023-04-24T03:17:08;17.38;;;10.13;;
70825;SDS011;58446;41.490;22.098;2023-04-24T03:19:34;16.25;;;10.52;;
70825;SDS011;58446;41.490;22.098;2023-04-24T03:22:01;15.03;;;10.00;;
70825;SDS011;58446;41.490;22.098;2023-04-24T03:24:27;15.98;;;11.43;;
70825;SDS011;58446;41.490;22.098;2023-04-24T03:26:53;14.03;;;9.77;;
70825;SDS011;58446;41.490;22.098;2023-04-24T03:29:19;15.63;;;9.77;;
70825;SDS011;58446;41.490;22.098;2023-04-24T03:31:45;14.47;;;9.03;;
70825;SDS011;58446;41.490;22.098;2023-04-24T03:34:10;16.45;;;9.23;;
70825;SDS011;58446;41.490;22.098;2023-04-24T03:36:36;14.87;;;10.17;;
70825;SDS011;58446;41.490;22.098;2023-04-24T03:39:02;16.15;;;9.57;;
70825;SDS011;58446;41.490;22.098;2023-04-24T03:41:28;13.52;;;9.02;;
70825;SDS011;58446;41.490;22.098;2023-04-24T03:43:55;15.87;;;10.17;;
70825;SDS011;58446;41.490;22.098;2023-04-24T03:46:21;15.57;;;10.35;;
70825;SDS011;58446;41.490;22.098;2023-04-24T03:48:47;17.83;;;10.60;;
70825;SDS011;58446;41.490;22.098;2023-04-24T03:51:12;14.77;;;9.53;;
70825;SDS011;58446;41.490;22.098;2023-04-24T03:53:38;15.70;;;10.18;;
70825;SDS011;58446;41.490;22.098;2023-04-24T03:56:04;14.80;;;9.77;;
70825;SDS011;58446;41.490;22.098;2023-04-24T03:58:29;15.98;;;9.63;;
70825;SDS011;58446;41.490;22.098;2023-04-24T04:00:55;13.90;;;9.63;;
70825;SDS011;58446;41.490;22.098;2023-04-24T04:03:23;13.80;;;8.85;;
70825;SDS011;58446;41.490;22.098;2023-04-24T04:05:49;13.52;;;9.20;;
70825;SDS011;58446;41.490;22.098;2023-04-24T04:08:14;13.30;;;9.50;;
70825;SDS011;58446;41.490;22.098;2023-04-24T04:10:40;13.70;;;9.18;;
70825;SDS011;58446;41.490;22.098;2023-04-24T04:13:06;13.00;;;9.27;;
70825;SDS011;58446;41.490;22.098;2023-04-24T04:15:32;15.23;;;10.20;;
70825;SDS011;58446;41.490;22.098;2023-04-24T04:17:57;13.13;;;10.20;;
70825;SDS011;58446;41.490;22.098;2023-04-24T04:20:23;13.98;;;9.75;;
70825;SDS011;58446;41.490;22.098;2023-04-24T04:22:49;13.30;;;9.68;;
70825;SDS011;58446;41.490;22.098;2023-04-24T04:25:15;15.87;;;9.50;;
70825;SDS011;58446;41.490;22.098;2023-04-24T04:27:43;13.55;;;9.25;;
70825;SDS011;58446;41.490;22.098;2023-04-24T04:30:09;12.18;;;8.73;;
70825;SDS011;58446;41.490;22.098;2023-04-24T04:32:35;14.00;;;9.33;;
70825;SDS011;58446;41.490;22.098;2023-04-24T04:35:02;13.32;;;9.40;;
70825;SDS011;58446;41.490;22.098;2023-04-24T04:37:29;13.73;;;9.57;;
70825;SDS011;58446;41.490;22.098;2023-04-24T04:39:56;14.60;;;9.07;;
70825;SDS011;58446;41.490;22.098;2023-04-24T04:42:26;14.82;;;9.30;;
70825;SDS011;58446;41.490;22.098;2023-04-24T04:44:54;14.27;;;8.53;;
70825;SDS011;58446;41.490;22.098;2023-04-24T04:47:22;14.57;;;10.30;;
70825;SDS011;58446;41.490;22.098;2023-04-24T04:49:48;13.38;;;9.00;;
70825;SDS011;58446;41.490;22.098;2023-04-24T04:52:16;13.55;;;9.70;;
70825;SDS011;58446;41.490;22.098;2023-04-24T04:54:42;14.45;;;9.60;;
70825;SDS011;58446;41.490;22.098;2023-04-24T04:57:08;13.37;;;8.97;;
70825;SDS011;58446;41.490;22.098;2023-04-24T04:59:34;13.63;;;9.20;;
70825;SDS011;58446;41.490;22.098;2023-04-24T05:02:00;14.87;;;9.50;;
70825;SDS011;58446;41.490;22.098;2023-04-24T05:04:26;13.88;;;9.07;;
70825;SDS011;58446;41.490;22.098;2023-04-24T05:06:52;12.75;;;9.30;;
70825;SDS011;58446;41.490;22.098;2023-04-24T05:09:18;13.47;;;8.60;;
70825;SDS011;58446;41.490;22.098;2023-04-24T05:11:45;13.25;;;8.63;;
70825;SDS011;58446;41.490;22.098;2023-04-24T05:14:10;12.45;;;8.52;;
70825;SDS011;58446;41.490;22.098;2023-04-24T05:16:38;13.38;;;8.18;;
70825;SDS011;58446;41.490;22.098;2023-04-24T05:19:04;13.97;;;8.53;;
70825;SDS011;58446;41.490;22.098;2023-04-24T05:21:30;11.90;;;8.45;;
70825;SDS011;58446;41.490;22.098;2023-04-24T05:23:56;11.57;;;7.95;;
70825;SDS011;58446;41.490;22.098;2023-04-24T05:26:22;10.70;;;7.93;;
70825;SDS011;58446;41.490;22.098;2023-04-24T05:28:50;11.00;;;8.20;;
70825;SDS011;58446;41.490;22.098;2023-04-24T05:31:16;10.70;;;7.97;;
70825;SDS011;58446;41.490;22.098;2023-04-24T05:33:42;13.13;;;8.60;;
70825;SDS011;58446;41.490;22.098;2023-04-24T05:36:08;11.80;;;7.57;;
70825;SDS011;58446;41.490;22.098;2023-04-24T05:38:34;12.52;;;8.20;;
70825;SDS011;58446;41.490;22.098;2023-04-24T05:40:59;11.70;;;8.40;;
70825;SDS011;58446;41.490;22.098;2023-04-24T05:43:25;13.40;;;7.45;;
70825;SDS011;58446;41.490;22.098;2023-04-24T05:45:51;13.07;;;7.25;;
70825;SDS011;58446;41.490;22.098;2023-04-24T05:48:18;14.45;;;7.82;;
70825;SDS011;58446;41.490;22.098;2023-04-24T05:50:44;12.47;;;7.67;;
70825;SDS011;58446;41.490;22.098;2023-04-24T05:53:12;11.48;;;7.90;;
70825;SDS011;58446;41.490;22.098;2023-04-24T05:55:38;13.27;;;8.15;;
70825;SDS011;58446;41.490;22.098;2023-04-24T05:58:03;13.07;;;8.13;;
70825;SDS011;58446;41.490;22.098;2023-04-24T06:00:29;10.57;;;7.72;;
70825;SDS011;58446;41.490;22.098;2023-04-24T06:02:56;13.10;;;8.63;;
70825;SDS011;58446;41.490;22.098;2023-04-24T06:05:22;16.15;;;8.50;;
70825;SDS011;58446;41.490;22.098;2023-04-24T06:07:48;10.93;;;7.43;;
70825;SDS011;58446;41.490;22.098;2023-04-24T06:10:14;11.57;;;8.07;;
70825;SDS011;58446;41.490;22.098;2023-04-24T06:12:39;11.40;;;7.30;;
70825;SDS011;58446;41.490;22.098;2023-04-24T06:15:05;11.82;;;7.82;;
70825;SDS011;58446;41.490;22.098;2023-04-24T06:17:32;11.50;;;7.65;;
70825;SDS011;58446;41.490;22.098;2023-04-24T06:19:57;12.37;;;7.80;;
70825;SDS011;58446;41.490;22.098;2023-04-24T06:22:23;14.02;;;8.35;;
70825;SDS011;58446;41.490;22.098;2023-04-24T06:24:49;12.70;;;8.53;;
70825;SDS011;58446;41.490;22.098;2023-04-24T06:27:15;12.23;;;8.15;;
70825;SDS011;58446;41.490;22.098;2023-04-24T06:29:40;13.17;;;8.63;;
70825;SDS011;58446;41.490;22.098;2023-04-24T06:32:06;11.30;;;7.60;;
70825;SDS011;58446;41.490;22.098;2023-04-24T06:34:32;10.15;;;7.22;;
70825;SDS011;58446;41.490;22.098;2023-04-24T06:37:00;11.65;;;7.65;;
70825;SDS011;58446;41.490;22.098;2023-04-24T06:39:26;11.75;;;7.80;;
70825;SDS011;58446;41.490;22.098;2023-04-24T06:41:53;10.03;;;7.30;;
70825;SDS011;58446;41.490;22.098;2023-04-24T06:44:19;10.93;;;7.85;;
70825;SDS011;58446;41.490;22.098;2023-04-24T06:46:45;13.38;;;7.15;;
70825;SDS011;58446;41.490;22.098;2023-04-24T06:49:11;10.80;;;7.10;;
70825;SDS011;58446;41.490;22.098;2023-04-24T06:51:36;11.77;;;7.15;;
70825;SDS011;58446;41.490;22.098;2023-04-24T06:54:02;10.68;;;7.55;;
70825;SDS011;58446;41.490;22.098;2023-04-24T06:56:31;14.00;;;7.70;;
70825;SDS011;58446;41.490;22.098;2023-04-24T06:58:56;12.90;;;7.10;;
70825;SDS011;58446;41.490;22.098;2023-04-24T07:01:22;10.43;;;7.47;;
70825;SDS011;58446;41.490;22.098;2023-04-24T07:03:48;9.85;;;7.30;;
70825;SDS011;58446;41.490;22.098;2023-04-24T07:06:14;12.07;;;6.88;;
70825;SDS011;58446;41.490;22.098;2023-04-24T07:08:41;12.65;;;6.72;;
70825;SDS011;58446;41.490;22.098;2023-04-24T07:11:07;10.13;;;7.13;;
70825;SDS011;58446;41.490;22.098;2023-04-24T07:13:33;11.82;;;7.53;;
70825;SDS011;58446;41.490;22.098;2023-04-24T07:16:00;12.20;;;7.03;;
70825;SDS011;58446;41.490;22.098;2023-04-24T07:18:26;12.70;;;6.65;;
70825;SDS011;58446;41.490;22.098;2023-04-24T07:20:52;10.50;;;7.10;;
70825;SDS011;58446;41.490;22.098;2023-04-24T07:23:18;10.48;;;7.07;;
70825;SDS011;58446;41.490;22.098;2023-04-24T07:25:44;10.93;;;6.97;;
70825;SDS011;58446;41.490;22.098;2023-04-24T07:28:10;10.93;;;7.35;;
70825;SDS011;58446;41.490;22.098;2023-04-24T07:30:36;10.00;;;6.53;;
70825;SDS011;58446;41.490;22.098;2023-04-24T07:33:01;13.40;;;8.03;;
70825;SDS011;58446;41.490;22.098;2023-04-24T07:35:27;11.02;;;7.18;;
70825;SDS011;58446;41.490;22.098;2023-04-24T07:37:53;11.90;;;7.23;;
70825;SDS011;58446;41.490;22.098;2023-04-24T07:40:19;11.02;;;7.05;;
70825;SDS011;58446;41.490;22.098;2023-04-24T07:42:45;9.07;;;6.25;;
70825;SDS011;58446;41.490;22.098;2023-04-24T07:45:13;10.25;;;6.55;;
70825;SDS011;58446;41.490;22.098;2023-04-24T07:47:40;10.23;;;6.37;;
70825;SDS011;58446;41.490;22.098;2023-04-24T07:50:08;9.10;;;6.45;;
70825;SDS011;58446;41.490;22.098;2023-04-24T07:52:34;9.52;;;6.78;;
70825;SDS011;58446;41.490;22.098;2023-04-24T07:55:00;10.60;;;6.38;;
70825;SDS011;58446;41.490;22.098;2023-04-24T07:57:27;11.18;;;6.65;;
70825;SDS011;58446;41.490;22.098;2023-04-24T07:59:53;10.90;;;7.00;;
70825;SDS011;58446;41.490;22.098;2023-04-24T08:02:19;12.30;;;6.53;;
70825;SDS011;58446;41.490;22.098;2023-04-24T08:04:46;10.50;;;6.72;;
70825;SDS011;58446;41.490;22.098;2023-04-24T08:07:12;9.67;;;7.10;;
70825;SDS011;58446;41.490;22.098;2023-04-24T08:09:38;10.13;;;6.78;;
70825;SDS011;58446;41.490;22.098;2023-04-24T08:12:04;10.95;;;7.50;;
70825;SDS011;58446;41.490;22.098;2023-04-24T08:14:30;11.60;;;7.05;;
70825;SDS011;58446;41.490;22.098;2023-04-24T08:16:56;10.50;;;6.70;;
70825;SDS011;58446;41.490;22.098;2023-04-24T08:19:26;11.40;;;6.57;;
70825;SDS011;58446;41.490;22.098;2023-04-24T08:21:51;8.73;;;6.27;;
70825;SDS011;58446;41.490;22.098;2023-04-24T08:24:17;10.10;;;7.13;;
70825;SDS011;58446;41.490;22.098;2023-04-24T08:26:43;10.43;;;5.97;;
70825;SDS011;58446;41.490;22.098;2023-04-24T08:29:09;10.18;;;6.72;;
70825;SDS011;58446;41.490;22.098;2023-04-24T08:31:34;11.40;;;7.00;;
70825;SDS011;58446;41.490;22.098;2023-04-24T08:34:01;10.73;;;7.10;;
70825;SDS011;58446;41.490;22.098;2023-04-24T08:36:27;12.75;;;7.80;;
70825;SDS011;58446;41.490;22.098;2023-04-24T08:38:53;11.25;;;6.95;;
70825;SDS011;58446;41.490;22.098;2023-04-24T08:41:19;10.70;;;7.75;;
70825;SDS011;58446;41.490;22.098;2023-04-24T08:43:46;12.27;;;7.50;;
70825;SDS011;58446;41.490;22.098;2023-04-24T08:46:13;14.23;;;9.52;;
70825;SDS011;58446;41.490;22.098;2023-04-24T08:48:40;13.65;;;8.55;;
70825;SDS011;58446;41.490;22.098;2023-04-24T08:51:07;14.13;;;8.60;;
70825;SDS011;58446;41.490;22.098;2023-04-24T08:53:34;10.65;;;6.18;;
70825;SDS011;58446;41.490;22.098;2023-04-24T08:56:01;12.82;;;6.50;;
70825;SDS011;58446;41.490;22.098;2023-04-24T08:58:28;10.00;;;6.97;;
70825;SDS011;58446;41.490;22.098;2023-04-24T09:00:55;9.57;;;6.47;;
70825;SDS011;58446;41.490;22.098;2023-04-24T09:03:24;9.85;;;6.68;;
70825;SDS011;58446;41.490;22.098;2023-04-24T09:05:52;9.32;;;7.13;;
70825;SDS011;58446;41.490;22.098;2023-04-24T09:08:20;11.50;;;7.10;;
70825;SDS011;58446;41.490;22.098;2023-04-24T09:10:50;10.10;;;6.72;;
70825;SDS011;58446;41.490;22.098;2023-04-24T09:13:16;9.90;;;6.70;;
70825;SDS011;58446;41.490;22.098;2023-04-24T09:15:42;9.52;;;6.18;;
70825;SDS011;58446;41.490;22.098;2023-04-24T09:18:08;10.07;;;7.43;;
70825;SDS011;58446;41.490;22.098;2023-04-24T09:20:34;8.60;;;6.32;;
70825;SDS011;58446;41.490;22.098;2023-04-24T09:23:01;9.90;;;6.60;;
70825;SDS011;58446;41.490;22.098;2023-04-24T09:25:32;11.13;;;6.97;;
70825;SDS011;58446;41.490;22.098;2023-04-24T09:28:01;9.50;;;7.37;;
70825;SDS011;58446;41.490;22.098;2023-04-24T09:30:29;9.20;;;5.82;;
70825;SDS011;58446;41.490;22.098;2023-04-24T09:33:13;9.45;;;6.07;;
70825;SDS011;58446;41.490;22.098;2023-04-24T09:35:41;10.57;;;6.20;;
70825;SDS011;58446;41.490;22.098;2023-04-24T09:38:08;11.25;;;8.32;;
70825;SDS011;58446;41.490;22.098;2023-04-24T09:40:35;9.53;;;6.97;;
70825;SDS011;58446;41.490;22.098;2023-04-24T09:43:01;8.90;;;6.53;;
70825;SDS011;58446;41.490;22.098;2023-04-24T09:45:28;9.15;;;6.10;;
70825;SDS011;58446;41.490;22.098;2023-04-24T09:48:00;8.80;;;5.75;;
70825;SDS011;58446;41.490;22.098;2023-04-24T09:50:26;11.30;;;6.57;;
70825;SDS011;58446;41.490;22.098;2023-04-24T09:52:58;8.73;;;6.85;;
70825;SDS011;58446;41.490;22.098;2023-04-24T09:55:27;9.68;;;6.65;;
70825;SDS011;58446;41.490;22.098;2023-04-24T09:58:01;10.30;;;7.72;;
70825;SDS011;58446;41.490;22.098;2023-04-24T10:00:33;9.40;;;7.07;;
70825;SDS011;58446;41.490;22.098;2023-04-24T10:03:00;11.77;;;6.53;;
70825;SDS011;58446;41.490;22.098;2023-04-24T10:05:28;9.70;;;6.60;;
70825;SDS011;58446;41.490;22.098;2023-04-24T10:08:00;10.32;;;6.82;;
70825;SDS011;58446;41.490;22.098;2023-04-24T10:10:35;11.68;;;7.75;;
70825;SDS011;58446;41.490;22.098;2023-04-24T10:13:04;9.73;;;6.83;;
70825;SDS011;58446;41.490;22.098;2023-04-24T10:15:30;10.18;;;5.78;;
70825;SDS011;58446;41.490;22.098;2023-04-24T10:17:57;9.05;;;6.88;;
70825;SDS011;58446;41.490;22.098;2023-04-24T10:20:25;12.35;;;7.88;;
70825;SDS011;58446;41.490;22.098;2023-04-24T10:22:52;12.67;;;8.70;;
70825;SDS011;58446;41.490;22.098;2023-04-24T10:25:22;13.93;;;8.40;;
70825;SDS011;58446;41.490;22.098;2023-04-24T10:27:51;11.80;;;8.13;;
70825;SDS011;58446;41.490;22.098;2023-04-24T10:30:19;10.82;;;7.50;;
70825;SDS011;58446;41.490;22.098;2023-04-24T10:32:45;11.60;;;7.30;;
70825;SDS011;58446;41.490;22.098;2023-04-24T10:35:12;11.83;;;7.07;;
70825;SDS011;58446;41.490;22.098;2023-04-24T10:37:40;10.52;;;6.32;;
70825;SDS011;58446;41.490;22.098;2023-04-24T10:40:10;9.88;;;6.53;;
70825;SDS011;58446;41.490;22.098;2023-04-24T10:42:40;8.50;;;6.38;;
70825;SDS011;58446;41.490;22.098;2023-04-24T10:45:15;9.70;;;6.95;;
70825;SDS011;58446;41.490;22.098;2023-04-24T10:47:43;9.57;;;7.10;;
70825;SDS011;58446;41.490;22.098;2023-04-24T10:50:21;9.13;;;6.70;;
70825;SDS011;58446;41.490;22.098;2023-04-24T10:52:48;10.15;;;7.00;;
70825;SDS011;58446;41.490;22.098;2023-04-24T10:55:16;10.48;;;7.18;;
70825;SDS011;58446;41.490;22.098;2023-04-24T10:58:04;9.27;;;6.97;;
70825;SDS011;58446;41.490;22.098;2023-04-24T11:00:35;10.68;;;6.28;;
70825;SDS011;58446;41.490;22.098;2023-04-24T11:03:04;9.50;;;6.88;;
70825;SDS011;58446;41.490;22.098;2023-04-24T11:06:05;10.73;;;7.38;;
70825;SDS011;58446;41.490;22.098;2023-04-24T11:13:24;8.93;;;6.45;;
70825;SDS011;58446;41.490;22.098;2023-04-24T11:19:05;11.70;;;6.85;;
70825;SDS011;58446;41.490;22.098;2023-04-24T11:21:41;9.88;;;6.40;;
70825;SDS011;58446;41.490;22.098;2023-04-24T11:27:15;12.90;;;6.70;;
70825;SDS011;58446;41.490;22.098;2023-04-24T11:35:13;10.60;;;6.47;;
70825;SDS011;58446;41.490;22.098;2023-04-24T11:37:53;11.73;;;7.00;;
70825;SDS011;58446;41.490;22.098;2023-04-24T11:40:23;10.20;;;6.43;;
70825;SDS011;58446;41.490;22.098;2023-04-24T11:42:53;10.35;;;6.82;;
70825;SDS011;58446;41.490;22.098;2023-04-24T11:45:25;9.45;;;6.63;;
70825;SDS011;58446;41.490;22.098;2023-04-24T11:47:53;9.95;;;6.70;;
70825;SDS011;58446;41.490;22.098;2023-04-24T11:50:22;12.03;;;7.30;;
70825;SDS011;58446;41.490;22.098;2023-04-24T11:52:51;9.75;;;6.55;;
70825;SDS011;58446;41.490;22.098;2023-04-24T11:57:46;10.80;;;6.82;;
70825;SDS011;58446;41.490;22.098;2023-04-24T12:00:18;9.53;;;6.67;;
70825;SDS011;58446;41.490;22.098;2023-04-24T12:03:11;10.07;;;7.22;;
70825;SDS011;58446;41.490;22.098;2023-04-24T12:05:37;10.15;;;7.53;;
70825;SDS011;58446;41.490;22.098;2023-04-24T12:08:03;10.15;;;6.40;;
70825;SDS011;58446;41.490;22.098;2023-04-24T12:10:31;9.98;;;6.93;;
70825;SDS011;58446;41.490;22.098;2023-04-24T12:12:58;8.43;;;6.37;;
70825;SDS011;58446;41.490;22.098;2023-04-24T12:15:25;10.50;;;6.95;;
70825;SDS011;58446;41.490;22.098;2023-04-24T12:17:52;10.52;;;7.00;;
70825;SDS011;58446;41.490;22.098;2023-04-24T12:20:23;10.20;;;7.53;;
70825;SDS011;58446;41.490;22.098;2023-04-24T12:22:53;12.43;;;7.00;;
70825;SDS011;58446;41.490;22.098;2023-04-24T12:25:21;10.33;;;7.03;;
70825;SDS011;58446;41.490;22.098;2023-04-24T12:27:52;11.02;;;8.00;;
70825;SDS011;58446;41.490;22.098;2023-04-24T12:30:20;12.38;;;8.00;;
70825;SDS011;58446;41.490;22.098;2023-04-24T12:32:48;12.52;;;8.57;;
70825;SDS011;58446;41.490;22.098;2023-04-24T12:35:20;12.35;;;7.93;;
70825;SDS011;58446;41.490;22.098;2023-04-24T12:37:48;10.50;;;6.90;;
70825;SDS011;58446;41.490;22.098;2023-04-24T12:40:14;10.30;;;7.85;;
70825;SDS011;58446;41.490;22.098;2023-04-24T12:42:45;10.68;;;6.97;;
70825;SDS011;58446;41.490;22.098;2023-04-24T12:45:12;10.07;;;7.35;;
70825;SDS011;58446;41.490;22.098;2023-04-24T12:47:39;10.27;;;7.10;;
70825;SDS011;58446;41.490;22.098;2023-04-24T12:50:09;10.60;;;6.97;;
70825;SDS011;58446;41.490;22.098;2023-04-24T12:52:37;12.30;;;6.80;;
70825;SDS011;58446;41.490;22.098;2023-04-24T12:55:05;9.30;;;6.95;;
70825;SDS011;58446;41.490;22.098;2023-04-24T12:57:36;9.18;;;6.70;;
70825;SDS011;58446;41.490;22.098;2023-04-24T13:00:03;9.60;;;7.28;;
70825;SDS011;58446;41.490;22.098;2023-04-24T13:02:30;9.60;;;7.13;;
70825;SDS011;58446;41.490;22.098;2023-04-24T13:04:56;13.10;;;7.75;;
70825;SDS011;58446;41.490;22.098;2023-04-24T13:07:26;12.07;;;6.78;;
70825;SDS011;58446;41.490;22.098;2023-04-24T13:09:52;9.98;;;7.13;;
70825;SDS011;58446;41.490;22.098;2023-04-24T13:12:19;10.15;;;7.78;;
70825;SDS011;58446;41.490;22.098;2023-04-24T13:14:45;17.57;;;11.13;;
70825;SDS011;58446;41.490;22.098;2023-04-24T13:17:11;14.05;;;9.75;;
70825;SDS011;58446;41.490;22.098;2023-04-24T13:19:38;19.17;;;14.40;;
70825;SDS011;58446;41.490;22.098;2023-04-24T13:22:06;11.18;;;8.10;;
70825;SDS011;58446;41.490;22.098;2023-04-24T13:24:32;12.30;;;7.93;;
70825;SDS011;58446;41.490;22.098;2023-04-24T13:26:59;14.52;;;7.10;;
70825;SDS011;58446;41.490;22.098;2023-04-24T13:29:26;10.70;;;7.45;;
70825;SDS011;58446;41.490;22.098;2023-04-24T13:31:52;11.90;;;8.23;;
70825;SDS011;58446;41.490;22.098;2023-04-24T13:34:29;12.57;;;7.78;;
70825;SDS011;58446;41.490;22.098;2023-04-24T13:36:56;10.87;;;7.73;;
70825;SDS011;58446;41.490;22.098;2023-04-24T13:39:23;9.88;;;7.25;;
70825;SDS011;58446;41.490;22.098;2023-04-24T13:41:51;10.95;;;7.60;;
70825;SDS011;58446;41.490;22.098;2023-04-24T13:44:17;9.57;;;6.72;;
70825;SDS011;58446;41.490;22.098;2023-04-24T13:46:44;11.98;;;6.88;;
70825;SDS011;58446;41.490;22.098;2023-04-24T13:49:11;10.23;;;7.07;;
70825;SDS011;58446;41.490;22.098;2023-04-24T13:51:40;12.82;;;7.82;;
70825;SDS011;58446;41.490;22.098;2023-04-24T13:54:07;12.73;;;7.35;;
70825;SDS011;58446;41.490;22.098;2023-04-24T13:56:33;15.63;;;9.23;;
70825;SDS011;58446;41.490;22.098;2023-04-24T13:58:59;17.50;;;10.77;;
70825;SDS011;58446;41.490;22.098;2023-04-24T14:01:25;10.57;;;7.63;;
70825;SDS011;58446;41.490;22.098;2023-04-24T14:03:52;11.85;;;9.00;;
70825;SDS011;58446;41.490;22.098;2023-04-24T14:06:19;14.48;;;9.25;;
70825;SDS011;58446;41.490;22.098;2023-04-24T14:08:45;12.60;;;8.37;;
70825;SDS011;58446;41.490;22.098;2023-04-24T14:11:11;11.18;;;8.70;;
70825;SDS011;58446;41.490;22.098;2023-04-24T14:13:38;11.93;;;8.23;;
70825;SDS011;58446;41.490;22.098;2023-04-24T14:16:06;11.80;;;8.52;;
70825;SDS011;58446;41.490;22.098;2023-04-24T14:18:32;10.97;;;8.03;;
70825;SDS011;58446;41.490;22.098;2023-04-24T14:20:57;11.85;;;8.13;;
70825;SDS011;58446;41.490;22.098;2023-04-24T14:23:24;10.93;;;6.63;;
70825;SDS011;58446;41.490;22.098;2023-04-24T14:25:49;10.07;;;7.10;;
70825;SDS011;58446;41.490;22.098;2023-04-24T14:28:20;10.38;;;7.57;;
70825;SDS011;58446;41.490;22.098;2023-04-24T14:30:46;10.63;;;7.60;;
70825;SDS011;58446;41.490;22.098;2023-04-24T14:33:13;10.32;;;7.32;;
70825;SDS011;58446;41.490;22.098;2023-04-24T14:35:40;13.43;;;7.87;;
70825;SDS011;58446;41.490;22.098;2023-04-24T14:38:09;11.40;;;7.80;;
70825;SDS011;58446;41.490;22.098;2023-04-24T14:40:36;11.35;;;7.25;;
70825;SDS011;58446;41.490;22.098;2023-04-24T14:43:02;11.68;;;7.50;;